createdAt,value
2023-02-05T00:02:01.701Z,17.32
2023-02-05T00:05:03.868Z,17.31
2023-02-05T00:08:06.050Z,17.29
2023-02-05T00:11:09.301Z,17.28
2023-02-05T00:14:11.614Z,17.28
2023-02-05T00:17:13.687Z,17.26
2023-02-05T00:20:15.852Z,17.26
2023-02-05T00:23:17.919Z,17.22
2023-02-05T00:26:20.146Z,17.23
2023-02-05T00:29:22.282Z,17.22
2023-02-05T00:32:24.463Z,17.21
2023-02-05T00:35:26.508Z,17.19
2023-02-05T00:38:28.686Z,17.18
2023-02-05T00:41:30.787Z,17.17
2023-02-05T00:44:32.956Z,17.16
2023-02-05T00:47:35.038Z,17.15
2023-02-05T00:50:37.172Z,17.13
2023-02-05T00:53:39.487Z,17.11
2023-02-05T00:56:41.559Z,17.10
2023-02-05T00:59:43.597Z,17.09
2023-02-05T01:02:45.827Z,17.10
2023-02-05T01:05:48.020Z,17.07
2023-02-05T01:08:50.083Z,17.07
2023-02-05T01:11:52.171Z,17.05
2023-02-05T01:14:54.347Z,17.05
2023-02-05T01:17:57.980Z,17.03
2023-02-05T01:21:00.106Z,17.02
2023-02-05T01:24:02.314Z,17.02
2023-02-05T01:27:04.753Z,17.01
2023-02-05T01:30:08.017Z,17.00
2023-02-05T01:33:10.108Z,16.98
2023-02-05T01:36:12.159Z,16.95
2023-02-05T01:39:14.409Z,16.96
2023-02-05T01:42:22.866Z,16.93
2023-02-05T01:45:32.854Z,16.93
2023-02-05T01:48:45.299Z,16.92
2023-02-05T01:51:49.014Z,16.91
2023-02-05T01:54:53.452Z,16.90
2023-02-05T01:57:56.151Z,16.89
2023-02-05T02:00:58.396Z,16.89
2023-02-05T02:04:04.562Z,16.87
2023-02-05T02:07:09.917Z,16.85
2023-02-05T02:10:15.904Z,16.86
2023-02-05T02:13:20.252Z,16.85
2023-02-05T02:16:23.364Z,16.81
2023-02-05T02:19:42.615Z,16.82
2023-02-05T02:22:55.540Z,16.80
2023-02-05T02:26:18.881Z,16.79
2023-02-05T02:29:37.610Z,16.77
2023-02-05T02:32:55.182Z,16.76
2023-02-05T02:36:25.939Z,16.75
2023-02-05T02:39:48.074Z,16.73
2023-02-05T02:43:05.152Z,16.73
2023-02-05T02:46:12.172Z,16.72
2023-02-05T02:49:21.588Z,16.69
2023-02-05T02:52:25.532Z,16.71
2023-02-05T02:55:29.157Z,16.70
2023-02-05T02:58:42.675Z,16.67
2023-02-05T03:01:53.709Z,16.66
2023-02-05T03:05:09.023Z,16.64
2023-02-05T03:08:36.292Z,16.64
2023-02-05T03:11:38.485Z,16.62
2023-02-05T03:14:40.531Z,16.63
2023-02-05T03:17:43.263Z,16.62
2023-02-05T03:20:55.204Z,16.60
2023-02-05T03:23:57.402Z,16.59
2023-02-05T03:26:59.512Z,16.57
2023-02-05T03:30:02.234Z,16.56
2023-02-05T03:33:34.532Z,16.54
2023-02-05T03:36:47.708Z,16.55
2023-02-05T03:40:11.706Z,16.52
2023-02-05T03:43:30.290Z,16.52
2023-02-05T03:47:05.571Z,16.50
2023-02-05T03:50:22.040Z,16.49
2023-02-05T03:53:34.470Z,16.48
2023-02-05T03:57:05.692Z,16.48
2023-02-05T04:00:08.796Z,16.46
2023-02-05T04:03:11.028Z,16.46
2023-02-05T04:06:13.335Z,16.45
2023-02-05T04:09:15.584Z,16.42
2023-02-05T04:12:17.645Z,16.42
2023-02-05T04:15:19.736Z,16.41
2023-02-05T04:18:21.976Z,16.40
2023-02-05T04:21:24.074Z,16.36
2023-02-05T04:24:26.217Z,16.37
2023-02-05T04:27:28.272Z,16.37
2023-02-05T04:30:30.315Z,16.34
2023-02-05T04:33:32.770Z,16.34
2023-02-05T04:36:34.851Z,16.33
2023-02-05T04:39:36.909Z,16.33
2023-02-05T04:42:38.992Z,16.32
2023-02-05T04:45:41.072Z,16.30
2023-02-05T04:48:43.233Z,16.31
2023-02-05T04:51:45.257Z,16.31
2023-02-05T04:54:47.313Z,16.28
2023-02-05T04:57:51.273Z,16.29
2023-02-05T05:00:54.474Z,16.26
2023-02-05T05:03:56.705Z,16.26
2023-02-05T05:06:58.946Z,16.24
2023-02-05T05:10:01.036Z,16.24
2023-02-05T05:13:03.126Z,16.21
2023-02-05T05:16:06.738Z,16.20
2023-02-05T05:19:08.822Z,16.21
2023-02-05T05:22:10.889Z,16.19
2023-02-05T05:25:13.025Z,16.18
2023-02-05T05:28:16.609Z,16.18
2023-02-05T05:31:19.553Z,16.16
2023-02-05T05:34:22.053Z,16.16
2023-02-05T05:37:24.182Z,16.15
2023-02-05T05:40:46.089Z,16.15
2023-02-05T05:43:48.698Z,16.14
2023-02-05T05:46:50.972Z,16.13
2023-02-05T05:49:53.069Z,16.13
2023-02-05T05:52:55.221Z,16.12
2023-02-05T05:55:57.317Z,16.10
2023-02-05T05:58:59.356Z,16.11
2023-02-05T06:05:04.942Z,16.07
2023-02-05T06:08:07.551Z,16.06
2023-02-05T06:11:09.662Z,16.07
2023-02-05T06:14:11.842Z,16.12
2023-02-05T06:17:13.903Z,16.21
2023-02-05T06:20:16.348Z,16.29
2023-02-05T06:23:18.538Z,16.34
2023-02-05T06:26:20.889Z,16.37
2023-02-05T06:29:22.930Z,16.40
2023-02-05T06:32:26.849Z,16.44
2023-02-05T06:35:29.005Z,16.50
2023-02-05T06:38:31.194Z,16.56
2023-02-05T06:41:33.246Z,16.62
2023-02-05T06:44:35.336Z,16.72
2023-02-05T06:47:37.900Z,16.81
2023-02-05T06:50:39.992Z,16.88
2023-02-05T06:53:42.107Z,16.90
2023-02-05T06:56:44.267Z,16.93
2023-02-05T06:59:46.466Z,17.01
2023-02-05T07:02:48.517Z,17.07
2023-02-05T07:05:50.732Z,17.10
2023-02-05T07:08:53.719Z,17.16
2023-02-05T07:11:55.745Z,17.19
2023-02-05T07:14:57.752Z,17.26
2023-02-05T07:18:00.145Z,17.26
2023-02-05T07:21:09.085Z,17.31
2023-02-05T07:24:11.185Z,17.31
2023-02-05T07:27:13.237Z,17.36
2023-02-05T07:30:15.719Z,17.38
2023-02-05T07:33:17.823Z,17.40
2023-02-05T07:36:20.073Z,17.40
2023-02-05T07:39:22.142Z,17.43
2023-02-05T07:42:24.497Z,17.47
2023-02-05T07:45:26.626Z,17.51
2023-02-05T07:48:28.630Z,17.54
2023-02-05T07:51:30.710Z,17.55
2023-02-05T07:54:32.724Z,17.54
2023-02-05T07:57:34.956Z,17.55
2023-02-05T08:00:37.266Z,17.63
2023-02-05T08:03:39.504Z,17.68
2023-02-05T08:06:41.729Z,17.72
2023-02-05T08:09:43.969Z,17.74
2023-02-05T08:12:46.116Z,17.77
2023-02-05T08:15:48.121Z,17.91
2023-02-05T08:18:50.817Z,17.97
2023-02-05T08:21:53.251Z,18.06
2023-02-05T08:24:55.289Z,18.06
2023-02-05T08:27:57.382Z,18.09
2023-02-05T08:30:59.487Z,18.21
2023-02-05T08:34:02.185Z,18.25
2023-02-05T08:37:04.261Z,18.24
2023-02-05T08:40:06.684Z,18.27
2023-02-05T08:43:08.784Z,18.30
2023-02-05T08:46:12.434Z,18.43
2023-02-05T08:49:14.474Z,18.51
2023-02-05T08:52:16.766Z,18.53
2023-02-05T08:55:18.898Z,18.50
2023-02-05T08:58:20.926Z,18.53
2023-02-05T09:01:23.137Z,18.61
2023-02-05T09:04:25.395Z,18.67
2023-02-05T09:07:27.516Z,18.66
2023-02-05T09:10:29.654Z,18.68
2023-02-05T09:13:31.793Z,18.65
2023-02-05T09:16:33.887Z,18.67
2023-02-05T09:19:37.820Z,18.74
2023-02-05T09:22:39.886Z,18.76
2023-02-05T09:25:42.132Z,18.73
2023-02-05T09:28:44.717Z,18.68
2023-02-05T09:31:47.002Z,18.71
2023-02-05T09:34:49.528Z,18.80
2023-02-05T09:37:51.620Z,18.85
2023-02-05T09:41:08.327Z,18.82
2023-02-05T09:44:27.146Z,18.86
2023-02-05T09:47:40.971Z,18.97
2023-02-05T09:50:43.540Z,19.03
2023-02-05T09:53:51.912Z,18.96
2023-02-05T09:56:56.766Z,19.00
2023-02-05T09:59:59.310Z,19.02
2023-02-05T10:03:18.405Z,19.05
2023-02-05T10:06:29.286Z,19.09
2023-02-05T10:09:49.830Z,19.03
2023-02-05T10:13:29.722Z,19.13
2023-02-05T10:16:59.308Z,19.16
2023-02-05T10:20:27.096Z,19.15
2023-02-05T10:23:38.154Z,19.16
2023-02-05T10:26:51.796Z,19.15
2023-02-05T10:30:12.351Z,19.23
2023-02-05T10:33:24.774Z,19.27
2023-02-05T10:36:27.656Z,19.23
2023-02-05T10:39:31.211Z,19.22
2023-02-05T10:42:44.115Z,19.23
2023-02-05T10:45:46.768Z,19.32
2023-02-05T10:48:59.757Z,19.37
2023-02-05T10:52:01.773Z,19.32
2023-02-05T10:55:04.097Z,19.28
2023-02-05T10:58:22.586Z,19.32
2023-02-05T11:01:29.976Z,19.41
2023-02-05T11:04:49.737Z,19.53
2023-02-05T11:07:54.956Z,19.48
2023-02-05T11:10:57.183Z,19.47
2023-02-05T11:14:06.300Z,19.47
2023-02-05T11:17:21.260Z,19.56
2023-02-05T11:20:30.134Z,19.65
2023-02-05T11:23:38.947Z,19.63
2023-02-05T11:26:41.018Z,19.58
2023-02-05T11:29:43.922Z,19.57
2023-02-05T11:32:45.961Z,19.62
2023-02-05T11:36:06.180Z,19.70
2023-02-05T11:39:17.097Z,19.74
2023-02-05T11:42:26.417Z,19.70
2023-02-05T11:45:31.147Z,19.69
2023-02-05T11:48:46.051Z,19.68
2023-02-05T11:51:51.867Z,19.77
2023-02-05T11:54:54.276Z,19.84
2023-02-05T11:58:02.745Z,19.77
2023-02-05T12:01:24.102Z,19.75
2023-02-05T12:04:28.411Z,19.75
2023-02-05T12:07:41.049Z,19.84
2023-02-05T12:11:07.269Z,19.89
2023-02-05T12:14:15.531Z,19.82
2023-02-05T12:17:41.935Z,19.79
2023-02-05T12:21:08.207Z,19.80
2023-02-05T12:24:35.992Z,19.87
2023-02-05T12:27:40.937Z,19.88
2023-02-05T12:30:57.898Z,19.87
2023-02-05T12:34:24.383Z,19.85
2023-02-05T12:37:30.349Z,19.91
2023-02-05T12:40:42.140Z,19.94
2023-02-05T12:43:49.743Z,19.89
2023-02-05T12:47:29.593Z,19.86
2023-02-05T12:50:53.669Z,19.87
2023-02-05T12:54:22.354Z,19.90
2023-02-05T12:57:32.855Z,19.92
2023-02-05T13:00:40.679Z,19.94
2023-02-05T13:03:55.178Z,19.88
2023-02-05T13:07:11.713Z,19.90
2023-02-05T13:10:45.990Z,19.88
2023-02-05T13:13:57.080Z,19.94
2023-02-05T13:17:21.249Z,19.95
2023-02-05T13:20:49.211Z,19.96
2023-02-05T13:24:12.786Z,19.90
2023-02-05T13:27:47.460Z,19.86
2023-02-05T13:30:55.410Z,19.83
2023-02-05T13:34:03.272Z,19.85
2023-02-05T13:37:34.044Z,19.83
2023-02-05T13:41:20.366Z,19.86
2023-02-05T13:44:48.225Z,19.84
2023-02-05T13:48:12.630Z,19.82
2023-02-05T13:51:21.915Z,19.79
2023-02-05T13:54:54.420Z,19.75
2023-02-05T13:58:11.998Z,19.69
2023-02-05T14:01:22.088Z,19.63
2023-02-05T14:04:42.134Z,19.60
2023-02-05T14:07:50.681Z,19.59
2023-02-05T14:11:04.042Z,19.54
2023-02-05T14:14:25.374Z,19.63
2023-02-05T14:17:30.989Z,19.69
2023-02-05T14:20:36.316Z,19.73
2023-02-05T14:23:47.305Z,19.25
2023-02-05T14:26:53.414Z,17.78
2023-02-05T14:29:56.772Z,17.88
2023-02-05T14:33:03.082Z,18.81
2023-02-05T14:36:17.259Z,19.21
2023-02-05T14:39:25.985Z,19.35
2023-02-05T14:42:30.148Z,19.42
2023-02-05T14:45:32.794Z,19.43
2023-02-05T14:48:40.724Z,19.41
2023-02-05T14:51:51.686Z,19.38
2023-02-05T14:55:01.020Z,19.36
2023-02-05T14:58:09.400Z,19.32
2023-02-05T15:01:31.079Z,19.29
2023-02-05T15:04:49.324Z,19.31
2023-02-05T15:07:58.286Z,19.31
2023-02-05T15:11:19.743Z,19.27
2023-02-05T15:14:22.241Z,19.28
2023-02-05T15:17:30.447Z,19.26
2023-02-05T15:20:36.072Z,19.23
2023-02-05T15:24:03.232Z,19.23
2023-02-05T15:27:19.797Z,19.17
2023-02-05T15:30:25.800Z,19.14
2023-02-05T15:33:53.882Z,19.13
2023-02-05T15:37:15.851Z,19.07
2023-02-05T15:40:32.384Z,19.03
2023-02-05T15:43:34.425Z,19.02
2023-02-05T15:46:37.061Z,18.98
2023-02-05T15:49:45.912Z,18.97
2023-02-05T15:52:48.197Z,18.95
2023-02-05T15:55:51.791Z,18.94
2023-02-05T15:59:03.836Z,18.92
2023-02-05T16:02:08.896Z,18.87
2023-02-05T16:05:19.878Z,18.86
2023-02-05T16:08:23.468Z,18.85
2023-02-05T16:11:33.267Z,18.82
2023-02-05T16:14:35.844Z,18.80
2023-02-05T16:17:40.104Z,18.79
2023-02-05T16:20:50.666Z,18.78
2023-02-05T16:24:06.104Z,18.76
2023-02-05T16:27:36.835Z,18.78
2023-02-05T16:30:42.694Z,18.05
2023-02-05T16:34:01.478Z,18.46
2023-02-05T16:37:05.976Z,18.68
2023-02-05T16:40:09.638Z,18.78
2023-02-05T16:43:22.767Z,18.83
2023-02-05T16:46:29.784Z,18.86
2023-02-05T16:49:31.989Z,18.85
2023-02-05T16:52:35.788Z,18.86
2023-02-05T16:55:42.625Z,18.88
2023-02-05T16:58:50.623Z,18.91
2023-02-05T17:01:53.756Z,18.92
2023-02-05T17:04:57.715Z,18.93
2023-02-05T17:08:02.097Z,18.81
2023-02-05T17:11:07.231Z,18.74
2023-02-05T17:14:28.135Z,18.71
2023-02-05T17:17:31.936Z,18.70
2023-02-05T17:20:34.818Z,18.70
2023-02-05T17:23:37.054Z,18.70
2023-02-05T17:26:42.744Z,18.69
2023-02-05T17:29:45.790Z,18.70
2023-02-05T17:32:50.496Z,18.69
2023-02-05T17:35:52.674Z,18.68
2023-02-05T17:38:55.049Z,18.68
2023-02-05T17:42:07.766Z,18.70
2023-02-05T17:45:24.118Z,18.69
2023-02-05T17:48:26.153Z,18.68
2023-02-05T17:51:28.246Z,18.68
2023-02-05T17:54:31.062Z,18.67
2023-02-05T17:57:34.906Z,18.67
2023-02-05T18:00:37.263Z,18.69
2023-02-05T18:03:39.550Z,18.68
2023-02-05T18:06:42.881Z,18.69
2023-02-05T18:09:45.050Z,18.67
2023-02-05T18:12:47.118Z,18.67
2023-02-05T18:15:54.455Z,18.67
2023-02-05T18:18:56.581Z,18.65
2023-02-05T18:21:58.605Z,18.67
2023-02-05T18:25:00.959Z,18.64
2023-02-05T18:28:03.125Z,18.63
2023-02-05T18:31:08.101Z,18.62
2023-02-05T18:34:10.231Z,18.62
2023-02-05T18:37:14.043Z,18.59
2023-02-05T18:40:16.422Z,18.59
2023-02-05T18:43:18.773Z,18.59
2023-02-05T18:46:21.306Z,18.58
2023-02-05T18:49:23.805Z,18.58
2023-02-05T18:52:27.424Z,18.56
2023-02-05T18:55:34.937Z,18.55
2023-02-05T18:58:37.166Z,18.57
2023-02-05T19:01:40.166Z,18.55
2023-02-05T19:04:42.372Z,18.54
2023-02-05T19:07:46.087Z,18.53
2023-02-05T19:10:48.170Z,18.49
2023-02-05T19:14:04.790Z,18.49
2023-02-05T19:17:06.883Z,18.47
2023-02-05T19:20:09.277Z,18.44
2023-02-05T19:23:11.308Z,18.44
2023-02-05T19:26:17.210Z,18.42
2023-02-05T19:29:20.341Z,18.40
2023-02-05T19:32:23.829Z,18.40
2023-02-05T19:35:25.900Z,18.38
2023-02-05T19:38:28.264Z,18.37
2023-02-05T19:41:33.054Z,18.36
2023-02-05T19:44:35.158Z,18.35
2023-02-05T19:47:37.197Z,18.34
2023-02-05T19:50:40.055Z,18.33
2023-02-05T19:53:44.021Z,18.30
2023-02-05T19:56:47.427Z,18.29
2023-02-05T19:59:49.542Z,18.30
2023-02-05T20:02:55.450Z,18.28
2023-02-05T20:06:00.976Z,18.26
2023-02-05T20:09:10.125Z,18.25
2023-02-05T20:12:13.128Z,18.24
2023-02-05T20:15:16.916Z,18.24
2023-02-05T20:18:18.914Z,18.23
2023-02-05T20:21:21.622Z,18.22
2023-02-05T20:24:23.912Z,18.21
2023-02-05T20:27:25.940Z,18.19
2023-02-05T20:30:46.873Z,18.18
2023-02-05T20:33:50.177Z,18.18
2023-02-05T20:36:57.887Z,18.15
2023-02-05T20:40:00.030Z,18.14
2023-02-05T20:43:04.594Z,18.13
2023-02-05T20:46:07.231Z,18.10
2023-02-05T20:49:09.871Z,18.10
2023-02-05T20:52:12.101Z,18.10
2023-02-05T20:55:14.266Z,18.09
2023-02-05T20:58:17.664Z,18.08
2023-02-05T21:01:22.504Z,18.07
2023-02-05T21:04:25.493Z,18.06
2023-02-05T21:07:29.657Z,18.05
2023-02-05T21:10:32.120Z,18.05
2023-02-05T21:13:35.237Z,18.04
2023-02-05T21:16:38.296Z,18.02
2023-02-05T21:19:40.510Z,18.02
2023-02-05T21:22:42.614Z,18.00
2023-02-05T21:25:45.333Z,18.03
2023-02-05T21:28:47.565Z,17.99
2023-02-05T21:31:52.966Z,17.99
2023-02-05T21:34:55.261Z,17.98
2023-02-05T21:37:57.367Z,17.96
2023-02-05T21:40:59.375Z,17.95
2023-02-05T21:44:02.165Z,17.95
2023-02-05T21:47:04.233Z,17.94
2023-02-05T21:50:06.882Z,17.93
2023-02-05T21:53:08.913Z,17.92
2023-02-05T21:56:14.935Z,17.90
2023-02-05T21:59:17.124Z,17.88
2023-02-05T22:02:19.337Z,17.87
2023-02-05T22:05:21.470Z,17.87
2023-02-05T22:08:23.586Z,17.85
2023-02-05T22:11:26.513Z,17.84
2023-02-05T22:14:29.347Z,17.83
2023-02-05T22:17:31.373Z,17.81
2023-02-05T22:20:33.570Z,17.80
2023-02-05T22:23:35.820Z,17.78
2023-02-05T22:26:39.141Z,17.77
2023-02-05T22:29:41.390Z,17.77
2023-02-05T22:32:43.461Z,17.76
2023-02-05T22:35:50.919Z,17.75
2023-02-05T22:38:53.592Z,17.73
2023-02-05T22:41:55.600Z,17.72
2023-02-05T22:44:57.669Z,17.69
2023-02-05T22:47:59.701Z,17.69
2023-02-05T22:51:06.800Z,17.67
2023-02-05T22:54:11.814Z,17.66
2023-02-05T22:57:13.959Z,17.65
2023-02-05T23:00:16.534Z,17.64
2023-02-05T23:03:18.574Z,17.62
2023-02-05T23:06:26.642Z,17.61
2023-02-05T23:09:28.721Z,17.62
2023-02-05T23:12:30.781Z,17.59
2023-02-05T23:15:37.561Z,17.59
2023-02-05T23:18:40.763Z,17.58
2023-02-05T23:21:43.627Z,17.56
2023-02-05T23:24:45.781Z,17.54
2023-02-05T23:27:47.823Z,17.53
2023-02-05T23:30:52.645Z,17.52
2023-02-05T23:33:55.006Z,17.49
2023-02-05T23:36:57.052Z,17.48
2023-02-05T23:39:59.155Z,17.48
2023-02-05T23:43:01.191Z,17.47
2023-02-05T23:46:04.610Z,17.44
2023-02-05T23:49:07.606Z,17.43
2023-02-05T23:52:09.714Z,17.41
2023-02-05T23:55:11.725Z,17.43
2023-02-05T23:58:14.307Z,17.40
